sensor_id;sensor_type;location;lat;lon;timestamp;pressure;altitude;pressure_sealevel;temperature;humidity
17785;BME280;9016;53.582;10.062;2023-01-10T00:01:40;100598.69;;;9.33;90.67
17785;BME280;9016;53.582;10.062;2023-01-10T00:04:08;100610.63;;;9.26;90.78
17785;BME280;9016;53.582;10.062;2023-01-10T00:06:36;100613.97;;;9.29;90.62
17785;BME280;9016;53.582;10.062;2023-01-10T00:09:04;100620.06;;;9.16;91.24
17785;BME280;9016;53.582;10.062;2023-01-10T00:11:33;100619.28;;;9.14;91.10
17785;BME280;9016;53.582;10.062;2023-01-10T00:14:19;100633.09;;;9.20;91.48
17785;BME280;9016;53.582;10.062;2023-01-10T00:16:47;100628.44;;;9.08;91.74
17785;BME280;9016;53.582;10.062;2023-01-10T00:19:15;100631.78;;;9.12;92.52
17785;BME280;9016;53.582;10.062;2023-01-10T00:21:43;100631.63;;;9.15;91.89
17785;BME280;9016;53.582;10.062;2023-01-10T00:24:11;100641.75;;;9.24;92.47
17785;BME280;9016;53.582;10.062;2023-01-10T00:26:48;100637.34;;;9.23;90.96
17785;BME280;9016;53.582;10.062;2023-01-10T00:29:18;100644.25;;;9.11;91.18
17785;BME280;9016;53.582;10.062;2023-01-10T00:31:46;100650.56;;;9.09;91.03
17785;BME280;9016;53.582;10.062;2023-01-10T00:34:14;100648.69;;;9.11;91.31
17785;BME280;9016;53.582;10.062;2023-01-10T00:36:42;100654.94;;;9.10;91.05
17785;BME280;9016;53.582;10.062;2023-01-10T00:39:11;100655.81;;;9.10;91.06
17785;BME280;9016;53.582;10.062;2023-01-10T00:41:40;100665.56;;;9.10;90.63
17785;BME280;9016;53.582;10.062;2023-01-10T00:44:26;100670.75;;;9.13;90.39
17785;BME280;9016;53.582;10.062;2023-01-10T00:46:54;100672.03;;;9.06;91.08
17785;BME280;9016;53.582;10.062;2023-01-10T00:49:22;100669.69;;;8.99;91.33
17785;BME280;9016;53.582;10.062;2023-01-10T00:51:50;100674.81;;;9.02;91.86
17785;BME280;9016;53.582;10.062;2023-01-10T00:54:18;100683.75;;;9.02;91.56
17785;BME280;9016;53.582;10.062;2023-01-10T00:56:46;100693.59;;;9.15;91.15
17785;BME280;9016;53.582;10.062;2023-01-10T00:59:14;100701.34;;;9.20;91.54
17785;BME280;9016;53.582;10.062;2023-01-10T01:01:43;100707.44;;;9.22;91.62
17785;BME280;9016;53.582;10.062;2023-01-10T01:04:15;100707.69;;;9.17;90.24
17785;BME280;9016;53.582;10.062;2023-01-10T01:06:43;100715.22;;;9.25;90.80
17785;BME280;9016;53.582;10.062;2023-01-10T01:09:13;100712.44;;;9.28;89.45
17785;BME280;9016;53.582;10.062;2023-01-10T01:11:41;100720.72;;;9.22;89.56
17785;BME280;9016;53.582;10.062;2023-01-10T01:14:09;100728.03;;;9.18;90.23
17785;BME280;9016;53.582;10.062;2023-01-10T01:16:37;100732.47;;;9.18;89.16
17785;BME280;9016;53.582;10.062;2023-01-10T01:19:07;100737.97;;;9.15;88.45
17785;BME280;9016;53.582;10.062;2023-01-10T01:21:35;100752.72;;;9.20;89.12
17785;BME280;9016;53.582;10.062;2023-01-10T01:24:03;100762.66;;;9.17;88.59
17785;BME280;9016;53.582;10.062;2023-01-10T01:26:31;100761.25;;;9.10;88.55
17785;BME280;9016;53.582;10.062;2023-01-10T01:29:00;100759.28;;;8.97;88.53
17785;BME280;9016;53.582;10.062;2023-01-10T01:31:28;100770.22;;;8.91;89.07
17785;BME280;9016;53.582;10.062;2023-01-10T01:33:56;100773.53;;;8.79;88.87
17785;BME280;9016;53.582;10.062;2023-01-10T01:36:26;100784.38;;;8.75;88.71
17785;BME280;9016;53.582;10.062;2023-01-10T01:38:54;100785.72;;;8.66;89.03
17785;BME280;9016;53.582;10.062;2023-01-10T01:41:22;100790.19;;;8.66;90.07
17785;BME280;9016;53.582;10.062;2023-01-10T01:44:13;100796.56;;;8.62;89.43
17785;BME280;9016;53.582;10.062;2023-01-10T01:46:44;100808.25;;;8.59;89.87
17785;BME280;9016;53.582;10.062;2023-01-10T01:49:17;100817.00;;;8.61;91.16
17785;BME280;9016;53.582;10.062;2023-01-10T01:51:52;100823.59;;;8.53;90.18
17785;BME280;9016;53.582;10.062;2023-01-10T01:54:21;100820.94;;;8.53;90.84
17785;BME280;9016;53.582;10.062;2023-01-10T01:56:52;100829.69;;;8.55;89.90
17785;BME280;9016;53.582;10.062;2023-01-10T01:59:23;100832.28;;;8.56;89.64
17785;BME280;9016;53.582;10.062;2023-01-10T02:01:55;100841.97;;;8.57;90.13
17785;BME280;9016;53.582;10.062;2023-01-10T02:04:28;100842.59;;;8.62;89.70
17785;BME280;9016;53.582;10.062;2023-01-10T02:06:58;100846.75;;;8.68;89.91
17785;BME280;9016;53.582;10.062;2023-01-10T02:09:32;100846.13;;;8.63;89.49
17785;BME280;9016;53.582;10.062;2023-01-10T02:12:01;100857.06;;;8.74;89.76
17785;BME280;9016;53.582;10.062;2023-01-10T02:14:30;100852.44;;;8.77;89.44
17785;BME280;9016;53.582;10.062;2023-01-10T02:17:00;100859.84;;;8.71;88.36
17785;BME280;9016;53.582;10.062;2023-01-10T02:19:37;100869.47;;;8.73;88.58
17785;BME280;9016;53.582;10.062;2023-01-10T02:25:37;100882.53;;;8.61;88.72
17785;BME280;9016;53.582;10.062;2023-01-10T02:28:44;100889.41;;;8.65;88.80
17785;BME280;9016;53.582;10.062;2023-01-10T02:31:36;100900.03;;;8.65;88.55
17785;BME280;9016;53.582;10.062;2023-01-10T02:34:14;100901.13;;;8.61;89.28
17785;BME280;9016;53.582;10.062;2023-01-10T02:36:51;100890.63;;;8.58;87.90
17785;BME280;9016;53.582;10.062;2023-01-10T02:39:25;100903.06;;;8.57;88.58
17785;BME280;9016;53.582;10.062;2023-01-10T02:41:58;100900.81;;;8.67;88.89
17785;BME280;9016;53.582;10.062;2023-01-10T02:44:33;100903.47;;;8.67;86.85
17785;BME280;9016;53.582;10.062;2023-01-10T02:47:02;100907.28;;;8.61;88.47
17785;BME280;9016;53.582;10.062;2023-01-10T02:49:41;100909.16;;;8.59;88.36
17785;BME280;9016;53.582;10.062;2023-01-10T02:52:10;100919.03;;;8.56;88.13
17785;BME280;9016;53.582;10.062;2023-01-10T02:54:40;100912.72;;;8.58;88.61
17785;BME280;9016;53.582;10.062;2023-01-10T02:57:36;100920.16;;;8.69;87.52
17785;BME280;9016;53.582;10.062;2023-01-10T03:00:26;100927.44;;;8.65;88.16
17785;BME280;9016;53.582;10.062;2023-01-10T03:03:04;100930.78;;;8.69;88.28
17785;BME280;9016;53.582;10.062;2023-01-10T03:05:48;100933.69;;;8.64;87.87
17785;BME280;9016;53.582;10.062;2023-01-10T03:08:26;100932.69;;;8.67;87.70
17785;BME280;9016;53.582;10.062;2023-01-10T03:10:58;100931.81;;;8.66;88.15
17785;BME280;9016;53.582;10.062;2023-01-10T03:13:31;100940.41;;;8.71;88.24
17785;BME280;9016;53.582;10.062;2023-01-10T03:16:03;100935.41;;;8.65;87.98
17785;BME280;9016;53.582;10.062;2023-01-10T03:18:36;100943.31;;;8.67;87.42
17785;BME280;9016;53.582;10.062;2023-01-10T03:21:07;100944.84;;;8.71;88.04
17785;BME280;9016;53.582;10.062;2023-01-10T03:23:37;100944.47;;;8.61;86.92
17785;BME280;9016;53.582;10.062;2023-01-10T03:26:06;100945.03;;;8.68;88.02
17785;BME280;9016;53.582;10.062;2023-01-10T03:28:40;100950.63;;;8.62;86.99
17785;BME280;9016;53.582;10.062;2023-01-10T03:31:15;100945.97;;;8.67;87.02
17785;BME280;9016;53.582;10.062;2023-01-10T03:33:46;100958.59;;;8.62;87.17
17785;BME280;9016;53.582;10.062;2023-01-10T03:36:23;100955.03;;;8.63;87.11
17785;BME280;9016;53.582;10.062;2023-01-10T03:39:03;100957.75;;;8.61;88.41
17785;BME280;9016;53.582;10.062;2023-01-10T03:41:35;100952.50;;;8.60;87.62
17785;BME280;9016;53.582;10.062;2023-01-10T03:44:14;100964.72;;;8.45;87.80
17785;BME280;9016;53.582;10.062;2023-01-10T03:47:04;100968.25;;;8.46;88.06
17785;BME280;9016;53.582;10.062;2023-01-10T03:49:36;100976.50;;;8.40;88.04
17785;BME280;9016;53.582;10.062;2023-01-10T03:52:10;100987.19;;;8.38;88.14
17785;BME280;9016;53.582;10.062;2023-01-10T03:54:41;101002.09;;;8.22;87.87
17785;BME280;9016;53.582;10.062;2023-01-10T03:57:15;101007.53;;;8.19;88.86
17785;BME280;9016;53.582;10.062;2023-01-10T03:59:44;101013.84;;;8.17;89.50
17785;BME280;9016;53.582;10.062;2023-01-10T04:02:11;101021.38;;;8.07;89.95
17785;BME280;9016;53.582;10.062;2023-01-10T04:04:39;101027.22;;;7.95;90.19
17785;BME280;9016;53.582;10.062;2023-01-10T04:07:09;101031.00;;;7.89;90.13
17785;BME280;9016;53.582;10.062;2023-01-10T04:09:37;101039.72;;;7.93;91.35
17785;BME280;9016;53.582;10.062;2023-01-10T04:12:05;101040.16;;;7.82;91.58
17785;BME280;9016;53.582;10.062;2023-01-10T04:14:33;101046.59;;;7.77;91.32
17785;BME280;9016;53.582;10.062;2023-01-10T04:17:01;101047.94;;;7.67;91.16
17785;BME280;9016;53.582;10.062;2023-01-10T04:19:29;101045.16;;;7.70;91.49
17785;BME280;9016;53.582;10.062;2023-01-10T04:21:57;101052.38;;;7.66;91.55
17785;BME280;9016;53.582;10.062;2023-01-10T04:24:26;101060.28;;;7.68;92.31
17785;BME280;9016;53.582;10.062;2023-01-10T04:26:54;101065.72;;;7.65;92.73
17785;BME280;9016;53.582;10.062;2023-01-10T04:29:22;101071.59;;;7.71;92.44
17785;BME280;9016;53.582;10.062;2023-01-10T04:31:50;101072.72;;;7.66;91.95
17785;BME280;9016;53.582;10.062;2023-01-10T04:34:18;101076.84;;;7.73;91.89
17785;BME280;9016;53.582;10.062;2023-01-10T04:36:47;101086.06;;;7.64;92.00
17785;BME280;9016;53.582;10.062;2023-01-10T04:39:16;101093.94;;;7.66;92.34
17785;BME280;9016;53.582;10.062;2023-01-10T04:41:45;101091.59;;;7.80;92.02
17785;BME280;9016;53.582;10.062;2023-01-10T04:44:13;101098.47;;;7.84;91.83
17785;BME280;9016;53.582;10.062;2023-01-10T04:46:41;101096.56;;;7.87;90.69
17785;BME280;9016;53.582;10.062;2023-01-10T04:49:09;101104.84;;;7.80;91.11
17785;BME280;9016;53.582;10.062;2023-01-10T04:51:38;101109.22;;;7.81;91.28
17785;BME280;9016;53.582;10.062;2023-01-10T04:54:06;101125.84;;;7.84;91.50
17785;BME280;9016;53.582;10.062;2023-01-10T04:56:34;101115.06;;;7.89;91.23
17785;BME280;9016;53.582;10.062;2023-01-10T04:59:03;101112.00;;;7.98;90.93
17785;BME280;9016;53.582;10.062;2023-01-10T05:01:32;101115.56;;;7.97;90.02
17785;BME280;9016;53.582;10.062;2023-01-10T05:04:00;101118.84;;;8.03;90.35
17785;BME280;9016;53.582;10.062;2023-01-10T05:06:29;101121.16;;;8.11;89.79
17785;BME280;9016;53.582;10.062;2023-01-10T05:08:57;101123.28;;;8.03;90.03
17785;BME280;9016;53.582;10.062;2023-01-10T05:11:25;101137.19;;;8.08;90.06
17785;BME280;9016;53.582;10.062;2023-01-10T05:13:53;101138.13;;;8.07;89.30
17785;BME280;9016;53.582;10.062;2023-01-10T05:16:23;101139.19;;;8.03;89.94
17785;BME280;9016;53.582;10.062;2023-01-10T05:18:51;101146.91;;;8.09;90.51
17785;BME280;9016;53.582;10.062;2023-01-10T05:21:19;101147.16;;;8.23;89.47
17785;BME280;9016;53.582;10.062;2023-01-10T05:23:47;101153.13;;;8.28;89.06
17785;BME280;9016;53.582;10.062;2023-01-10T05:26:16;101155.50;;;8.14;88.70
17785;BME280;9016;53.582;10.062;2023-01-10T05:28:45;101157.19;;;8.17;90.70
17785;BME280;9016;53.582;10.062;2023-01-10T05:31:14;101158.81;;;8.19;90.12
17785;BME280;9016;53.582;10.062;2023-01-10T05:33:45;101178.50;;;8.15;89.54
17785;BME280;9016;53.582;10.062;2023-01-10T05:36:14;101183.81;;;8.15;89.60
17785;BME280;9016;53.582;10.062;2023-01-10T05:38:42;101189.13;;;8.15;89.91
17785;BME280;9016;53.582;10.062;2023-01-10T05:41:10;101192.41;;;8.20;89.35
17785;BME280;9016;53.582;10.062;2023-01-10T05:43:38;101190.44;;;8.25;89.70
17785;BME280;9016;53.582;10.062;2023-01-10T05:46:06;101195.69;;;8.27;89.73
17785;BME280;9016;53.582;10.062;2023-01-10T05:48:34;101200.38;;;8.20;88.81
17785;BME280;9016;53.582;10.062;2023-01-10T05:51:04;101202.84;;;8.25;89.24
17785;BME280;9016;53.582;10.062;2023-01-10T05:53:32;101205.69;;;8.20;88.61
17785;BME280;9016;53.582;10.062;2023-01-10T05:56:01;101206.69;;;8.18;88.79
17785;BME280;9016;53.582;10.062;2023-01-10T05:58:29;101212.06;;;8.16;88.59
17785;BME280;9016;53.582;10.062;2023-01-10T06:00:57;101221.06;;;8.12;88.75
17785;BME280;9016;53.582;10.062;2023-01-10T06:03:26;101224.91;;;8.05;88.93
17785;BME280;9016;53.582;10.062;2023-01-10T06:05:54;101233.34;;;7.94;89.64
17785;BME280;9016;53.582;10.062;2023-01-10T06:08:24;101234.94;;;7.98;89.99
17785;BME280;9016;53.582;10.062;2023-01-10T06:10:52;101238.56;;;7.96;89.44
17785;BME280;9016;53.582;10.062;2023-01-10T06:13:20;101243.31;;;7.88;89.37
17785;BME280;9016;53.582;10.062;2023-01-10T06:15:48;101252.28;;;7.85;90.08
17785;BME280;9016;53.582;10.062;2023-01-10T06:18:16;101251.00;;;7.74;90.28
17785;BME280;9016;53.582;10.062;2023-01-10T06:20:44;101249.88;;;7.79;91.06
17785;BME280;9016;53.582;10.062;2023-01-10T06:23:12;101252.69;;;7.75;90.39
17785;BME280;9016;53.582;10.062;2023-01-10T06:25:42;101257.19;;;7.73;91.23
17785;BME280;9016;53.582;10.062;2023-01-10T06:28:11;101264.31;;;7.72;91.14
17785;BME280;9016;53.582;10.062;2023-01-10T06:30:41;101277.50;;;7.74;91.02
17785;BME280;9016;53.582;10.062;2023-01-10T06:33:10;101275.00;;;7.71;90.03
17785;BME280;9016;53.582;10.062;2023-01-10T06:35:38;101286.44;;;7.71;90.90
17785;BME280;9016;53.582;10.062;2023-01-10T06:38:06;101281.34;;;7.67;90.11
17785;BME280;9016;53.582;10.062;2023-01-10T06:40:34;101279.66;;;7.64;89.83
17785;BME280;9016;53.582;10.062;2023-01-10T06:43:03;101284.91;;;7.66;89.92
17785;BME280;9016;53.582;10.062;2023-01-10T06:45:32;101290.47;;;7.60;90.32
17785;BME280;9016;53.582;10.062;2023-01-10T06:48:00;101292.47;;;7.53;90.51
17785;BME280;9016;53.582;10.062;2023-01-10T06:50:28;101288.72;;;7.59;91.17
17785;BME280;9016;53.582;10.062;2023-01-10T06:52:57;101299.47;;;7.56;90.31
17785;BME280;9016;53.582;10.062;2023-01-10T06:55:26;101302.63;;;7.65;90.57
17785;BME280;9016;53.582;10.062;2023-01-10T06:57:55;101306.25;;;7.63;89.71
17785;BME280;9016;53.582;10.062;2023-01-10T07:00:25;101307.94;;;7.65;90.14
17785;BME280;9016;53.582;10.062;2023-01-10T07:02:54;101311.63;;;7.61;89.89
17785;BME280;9016;53.582;10.062;2023-01-10T07:05:23;101319.94;;;7.52;90.31
17785;BME280;9016;53.582;10.062;2023-01-10T07:07:51;101331.66;;;7.47;90.45
17785;BME280;9016;53.582;10.062;2023-01-10T07:10:19;101333.84;;;7.36;90.77
17785;BME280;9016;53.582;10.062;2023-01-10T07:12:47;101334.50;;;7.41;91.35
17785;BME280;9016;53.582;10.062;2023-01-10T07:15:14;101342.94;;;7.52;91.39
17785;BME280;9016;53.582;10.062;2023-01-10T07:17:44;101333.88;;;7.57;90.50
17785;BME280;9016;53.582;10.062;2023-01-10T07:20:12;101348.28;;;7.50;90.97
17785;BME280;9016;53.582;10.062;2023-01-10T07:22:39;101335.44;;;7.63;90.37
17785;BME280;9016;53.582;10.062;2023-01-10T07:25:08;101330.69;;;7.71;90.04
17785;BME280;9016;53.582;10.062;2023-01-10T07:27:36;101342.78;;;7.78;89.72
17785;BME280;9016;53.582;10.062;2023-01-10T07:30:06;101341.69;;;7.83;89.31
17785;BME280;9016;53.582;10.062;2023-01-10T07:32:35;101342.53;;;7.84;88.21
17785;BME280;9016;53.582;10.062;2023-01-10T07:35:04;101339.13;;;7.80;89.40
17785;BME280;9016;53.582;10.062;2023-01-10T07:37:33;101348.84;;;7.81;88.90
17785;BME280;9016;53.582;10.062;2023-01-10T07:40:01;101348.78;;;7.83;88.25
17785;BME280;9016;53.582;10.062;2023-01-10T07:42:29;101350.47;;;7.85;88.44
17785;BME280;9016;53.582;10.062;2023-01-10T07:44:58;101354.88;;;7.85;87.80
17785;BME280;9016;53.582;10.062;2023-01-10T07:47:26;101357.09;;;7.74;88.33
17785;BME280;9016;53.582;10.062;2023-01-10T07:49:54;101365.94;;;7.74;89.58
17785;BME280;9016;53.582;10.062;2023-01-10T07:52:24;101369.38;;;7.76;89.63
17785;BME280;9016;53.582;10.062;2023-01-10T07:54:52;101370.16;;;7.78;89.65
17785;BME280;9016;53.582;10.062;2023-01-10T07:57:20;101366.09;;;7.91;89.45
17785;BME280;9016;53.582;10.062;2023-01-10T07:59:55;101365.00;;;7.97;88.27
17785;BME280;9016;53.582;10.062;2023-01-10T08:02:24;101363.88;;;8.04;88.92
17785;BME280;9016;53.582;10.062;2023-01-10T08:04:52;101362.41;;;8.17;88.32
17785;BME280;9016;53.582;10.062;2023-01-10T08:07:20;101366.31;;;8.09;87.32
17785;BME280;9016;53.582;10.062;2023-01-10T08:09:49;101363.28;;;8.18;88.14
17785;BME280;9016;53.582;10.062;2023-01-10T08:12:17;101365.78;;;8.22;87.41
17785;BME280;9016;53.582;10.062;2023-01-10T08:14:45;101363.53;;;8.12;87.01
17785;BME280;9016;53.582;10.062;2023-01-10T08:17:13;101370.81;;;8.07;87.50
17785;BME280;9016;53.582;10.062;2023-01-10T08:19:41;101374.03;;;8.15;87.91
17785;BME280;9016;53.582;10.062;2023-01-10T08:22:09;101386.38;;;8.16;87.13
17785;BME280;9016;53.582;10.062;2023-01-10T08:24:37;101386.94;;;8.02;87.48
17785;BME280;9016;53.582;10.062;2023-01-10T08:27:07;101398.59;;;8.20;88.24
17785;BME280;9016;53.582;10.062;2023-01-10T08:29:35;101395.53;;;8.30;86.77
17785;BME280;9016;53.582;10.062;2023-01-10T08:32:04;101392.84;;;8.32;87.35
17785;BME280;9016;53.582;10.062;2023-01-10T08:34:31;101408.78;;;8.32;86.88
17785;BME280;9016;53.582;10.062;2023-01-10T08:36:59;101412.63;;;8.23;86.33
17785;BME280;9016;53.582;10.062;2023-01-10T08:39:28;101410.19;;;8.40;85.84
17785;BME280;9016;53.582;10.062;2023-01-10T08:41:57;101402.97;;;8.44;85.90
17785;BME280;9016;53.582;10.062;2023-01-10T08:44:26;101409.56;;;8.55;85.89
17785;BME280;9016;53.582;10.062;2023-01-10T08:46:54;101409.16;;;8.44;85.68
17785;BME280;9016;53.582;10.062;2023-01-10T08:49:22;101416.84;;;8.50;85.74
17785;BME280;9016;53.582;10.062;2023-01-10T08:51:50;101419.03;;;8.41;85.95
17785;BME280;9016;53.582;10.062;2023-01-10T08:54:18;101429.50;;;8.44;85.05
17785;BME280;9016;53.582;10.062;2023-01-10T08:56:46;101437.34;;;8.47;85.54
17785;BME280;9016;53.582;10.062;2023-01-10T08:59:15;101446.13;;;8.49;85.81
17785;BME280;9016;53.582;10.062;2023-01-10T09:01:44;101445.56;;;8.62;84.96
17785;BME280;9016;53.582;10.062;2023-01-10T09:04:12;101441.19;;;8.61;84.99
17785;BME280;9016;53.582;10.062;2023-01-10T09:06:40;101440.94;;;8.67;84.25
17785;BME280;9016;53.582;10.062;2023-01-10T09:09:08;101424.06;;;8.68;84.24
17785;BME280;9016;53.582;10.062;2023-01-10T09:11:37;101411.31;;;8.76;85.00
17785;BME280;9016;53.582;10.062;2023-01-10T09:14:07;101398.44;;;8.87;84.17
17785;BME280;9016;53.582;10.062;2023-01-10T09:16:35;101403.34;;;8.76;83.97
17785;BME280;9016;53.582;10.062;2023-01-10T09:19:04;101412.41;;;8.72;83.71
17785;BME280;9016;53.582;10.062;2023-01-10T09:21:32;101414.56;;;8.63;83.18
17785;BME280;9016;53.582;10.062;2023-01-10T09:24:00;101406.53;;;8.64;84.94
17785;BME280;9016;53.582;10.062;2023-01-10T09:26:29;101406.72;;;8.80;84.15
17785;BME280;9016;53.582;10.062;2023-01-10T09:28:57;101424.97;;;8.89;83.97
17785;BME280;9016;53.582;10.062;2023-01-10T09:31:25;101425.00;;;8.87;83.23
17785;BME280;9016;53.582;10.062;2023-01-10T09:33:53;101426.41;;;8.76;83.84
17785;BME280;9016;53.582;10.062;2023-01-10T09:36:22;101416.19;;;8.87;84.59
17785;BME280;9016;53.582;10.062;2023-01-10T09:38:50;101426.84;;;9.07;82.87
17785;BME280;9016;53.582;10.062;2023-01-10T09:41:37;101450.03;;;9.24;82.82
17785;BME280;9016;53.582;10.062;2023-01-10T09:44:16;101455.22;;;9.07;81.88
17785;BME280;9016;53.582;10.062;2023-01-10T09:46:51;101463.25;;;9.05;82.73
17785;BME280;9016;53.582;10.062;2023-01-10T09:49:38;101469.53;;;8.82;82.84
17785;BME280;9016;53.582;10.062;2023-01-10T09:52:20;101482.31;;;8.73;83.13
17785;BME280;9016;53.582;10.062;2023-01-10T09:54:49;101479.22;;;8.62;84.43
17785;BME280;9016;53.582;10.062;2023-01-10T09:57:20;101480.34;;;8.78;84.86
17785;BME280;9016;53.582;10.062;2023-01-10T09:59:50;101488.75;;;8.67;84.62
17785;BME280;9016;53.582;10.062;2023-01-10T10:02:25;101481.47;;;8.72;84.79
17785;BME280;9016;53.582;10.062;2023-01-10T10:05:07;101484.91;;;8.74;83.83
17785;BME280;9016;53.582;10.062;2023-01-10T10:07:39;101490.28;;;8.73;84.26
17785;BME280;9016;53.582;10.062;2023-01-10T10:10:12;101486.66;;;8.75;84.87
17785;BME280;9016;53.582;10.062;2023-01-10T10:12:45;101495.06;;;8.86;83.83
17785;BME280;9016;53.582;10.062;2023-01-10T10:15:23;101497.56;;;8.89;83.70
17785;BME280;9016;53.582;10.062;2023-01-10T10:18:06;101500.19;;;8.69;83.82
17785;BME280;9016;53.582;10.062;2023-01-10T10:20:46;101500.94;;;8.94;84.46
17785;BME280;9016;53.582;10.062;2023-01-10T10:23:28;101491.31;;;9.12;83.42
17785;BME280;9016;53.582;10.062;2023-01-10T10:26:03;101499.59;;;9.05;82.81
17785;BME280;9016;53.582;10.062;2023-01-10T10:32:00;101486.13;;;8.87;83.89
17785;BME280;9016;53.582;10.062;2023-01-10T10:34:36;101486.59;;;8.77;84.30
17785;BME280;9016;53.582;10.062;2023-01-10T10:37:11;101479.50;;;8.77;83.81
17785;BME280;9016;53.582;10.062;2023-01-10T10:39:44;101483.44;;;8.89;84.90
17785;BME280;9016;53.582;10.062;2023-01-10T10:42:17;101475.50;;;9.09;82.82
17785;BME280;9016;53.582;10.062;2023-01-10T10:44:49;101494.50;;;9.00;82.32
17785;BME280;9016;53.582;10.062;2023-01-10T10:47:22;101499.53;;;9.26;84.47
17785;BME280;9016;53.582;10.062;2023-01-10T10:49:53;101512.25;;;9.20;83.08
17785;BME280;9016;53.582;10.062;2023-01-10T10:52:26;101502.66;;;9.16;84.03
17785;BME280;9016;53.582;10.062;2023-01-10T10:54:59;101497.50;;;9.13;81.98
17785;BME280;9016;53.582;10.062;2023-01-10T10:57:33;101500.53;;;9.04;83.56
17785;BME280;9016;53.582;10.062;2023-01-10T11:00:12;101509.78;;;9.15;81.84
17785;BME280;9016;53.582;10.062;2023-01-10T11:02:44;101502.50;;;9.20;82.97
17785;BME280;9016;53.582;10.062;2023-01-10T11:05:17;101506.06;;;9.19;80.87
17785;BME280;9016;53.582;10.062;2023-01-10T11:07:47;101511.97;;;9.06;81.53
17785;BME280;9016;53.582;10.062;2023-01-10T11:10:22;101509.25;;;8.85;82.14
17785;BME280;9016;53.582;10.062;2023-01-10T11:13:26;101508.34;;;8.86;82.55
17785;BME280;9016;53.582;10.062;2023-01-10T11:15:59;101512.72;;;9.09;82.21
17785;BME280;9016;53.582;10.062;2023-01-10T11:18:29;101510.91;;;9.10;81.12
17785;BME280;9016;53.582;10.062;2023-01-10T11:20:59;101514.84;;;9.21;81.33
17785;BME280;9016;53.582;10.062;2023-01-10T11:23:37;101519.66;;;9.33;80.98
17785;BME280;9016;53.582;10.062;2023-01-10T11:26:20;101517.97;;;9.31;80.32
17785;BME280;9016;53.582;10.062;2023-01-10T11:28:50;101515.56;;;9.25;80.03
17785;BME280;9016;53.582;10.062;2023-01-10T11:31:25;101511.28;;;9.22;80.96
17785;BME280;9016;53.582;10.062;2023-01-10T11:33:55;101511.28;;;9.22;81.38
17785;BME280;9016;53.582;10.062;2023-01-10T11:36:23;101512.91;;;9.25;80.89
17785;BME280;9016;53.582;10.062;2023-01-10T11:38:59;101517.31;;;9.26;80.45
17785;BME280;9016;53.582;10.062;2023-01-10T11:41:29;101515.72;;;9.42;80.70
17785;BME280;9016;53.582;10.062;2023-01-10T11:44:14;101519.13;;;9.45;80.25
17785;BME280;9016;53.582;10.062;2023-01-10T11:46:44;101520.38;;;9.37;80.37
17785;BME280;9016;53.582;10.062;2023-01-10T11:49:14;101524.22;;;9.30;81.00
17785;BME280;9016;53.582;10.062;2023-01-10T11:51:47;101523.06;;;9.37;81.37
17785;BME280;9016;53.582;10.062;2023-01-10T11:54:19;101517.97;;;9.31;80.88
17785;BME280;9016;53.582;10.062;2023-01-10T11:56:55;101515.50;;;9.26;81.05
17785;BME280;9016;53.582;10.062;2023-01-10T11:59:24;101513.88;;;9.24;82.00
17785;BME280;9016;53.582;10.062;2023-01-10T12:01:55;101512.59;;;9.32;82.42
17785;BME280;9016;53.582;10.062;2023-01-10T12:04:26;101522.97;;;9.38;81.55
17785;BME280;9016;53.582;10.062;2023-01-10T12:06:58;101514.34;;;9.33;81.24
17785;BME280;9016;53.582;10.062;2023-01-10T12:09:39;101520.44;;;9.35;81.66
17785;BME280;9016;53.582;10.062;2023-01-10T12:12:20;101513.31;;;9.36;81.69
17785;BME280;9016;53.582;10.062;2023-01-10T12:14:49;101513.25;;;9.37;81.59
17785;BME280;9016;53.582;10.062;2023-01-10T12:17:24;101505.16;;;9.40;81.31
17785;BME280;9016;53.582;10.062;2023-01-10T12:19:53;101502.34;;;9.63;81.17
17785;BME280;9016;53.582;10.062;2023-01-10T12:22:27;101508.69;;;9.61;80.57
17785;BME280;9016;53.582;10.062;2023-01-10T12:24:58;101504.34;;;9.58;81.31
17785;BME280;9016;53.582;10.062;2023-01-10T12:27:28;101509.59;;;9.60;80.96
17785;BME280;9016;53.582;10.062;2023-01-10T12:30:03;101517.09;;;9.70;80.88
17785;BME280;9016;53.582;10.062;2023-01-10T12:32:37;101517.06;;;9.72;79.96
17785;BME280;9016;53.582;10.062;2023-01-10T12:35:11;101510.63;;;9.76;79.79
17785;BME280;9016;53.582;10.062;2023-01-10T12:37:47;101516.84;;;9.76;79.21
17785;BME280;9016;53.582;10.062;2023-01-10T12:40:23;101509.44;;;9.63;78.77
17785;BME280;9016;53.582;10.062;2023-01-10T12:42:58;101505.81;;;9.65;79.53
17785;BME280;9016;53.582;10.062;2023-01-10T12:45:49;101505.31;;;9.76;78.88
17785;BME280;9016;53.582;10.062;2023-01-10T12:48:23;101511.38;;;9.79;79.47
17785;BME280;9016;53.582;10.062;2023-01-10T12:50:56;101504.91;;;9.85;79.92
17785;BME280;9016;53.582;10.062;2023-01-10T12:53:29;101504.88;;;9.86;79.19
17785;BME280;9016;53.582;10.062;2023-01-10T12:56:01;101500.44;;;9.85;79.67
17785;BME280;9016;53.582;10.062;2023-01-10T12:58:38;101513.38;;;9.74;78.63
17785;BME280;9016;53.582;10.062;2023-01-10T13:01:11;101505.59;;;9.90;78.98
17785;BME280;9016;53.582;10.062;2023-01-10T13:03:42;101506.38;;;9.92;78.84
17785;BME280;9016;53.582;10.062;2023-01-10T13:06:15;101511.78;;;9.70;78.60
17785;BME280;9016;53.582;10.062;2023-01-10T13:08:48;101516.66;;;9.61;78.84
17785;BME280;9016;53.582;10.062;2023-01-10T13:11:17;101516.03;;;9.74;79.82
17785;BME280;9016;53.582;10.062;2023-01-10T13:13:55;101508.06;;;9.74;78.61
17785;BME280;9016;53.582;10.062;2023-01-10T13:16:34;101513.69;;;9.87;78.85
17785;BME280;9016;53.582;10.062;2023-01-10T13:19:15;101510.84;;;9.91;78.29
17785;BME280;9016;53.582;10.062;2023-01-10T13:21:49;101517.69;;;9.97;78.07
17785;BME280;9016;53.582;10.062;2023-01-10T13:24:19;101508.81;;;9.96;77.61
17785;BME280;9016;53.582;10.062;2023-01-10T13:26:51;101507.78;;;9.80;77.14
17785;BME280;9016;53.582;10.062;2023-01-10T13:29:22;101501.25;;;9.87;76.97